createdAt,value
2019-04-14T00:00:42.847Z,0.00
2019-04-14T00:01:43.411Z,0.00
2019-04-14T00:02:42.876Z,0.00
2019-04-14T00:03:43.294Z,0.00
2019-04-14T00:04:42.907Z,0.00
2019-04-14T00:05:43.025Z,0.00
2019-04-14T00:06:44.028Z,0.00
2019-04-14T00:07:42.945Z,0.00
2019-04-14T00:08:43.750Z,0.00
2019-04-14T00:09:43.153Z,0.00
2019-04-14T00:10:44.043Z,0.00
2019-04-14T00:11:43.619Z,0.00
2019-04-14T00:12:43.018Z,0.00
2019-04-14T00:13:43.500Z,0.00
2019-04-14T00:14:43.038Z,0.00
2019-04-14T00:15:46.818Z,0.00
2019-04-14T00:16:43.069Z,0.00
2019-04-14T00:17:43.476Z,0.00
2019-04-14T00:18:43.090Z,0.00
2019-04-14T00:19:43.470Z,0.00
2019-04-14T00:20:43.119Z,0.00
2019-04-14T00:21:43.268Z,0.00
2019-04-14T00:22:43.145Z,0.00
2019-04-14T00:23:43.468Z,0.00
2019-04-14T00:24:43.174Z,0.00
2019-04-14T00:25:43.373Z,0.00
2019-04-14T00:26:44.429Z,0.00
2019-04-14T00:27:43.271Z,0.00
2019-04-14T00:28:43.228Z,0.00
2019-04-14T00:29:43.594Z,0.00
2019-04-14T00:30:43.254Z,0.00
2019-04-14T00:31:43.319Z,0.00
2019-04-14T00:32:44.350Z,0.00
2019-04-14T00:33:43.294Z,0.00
2019-04-14T00:34:44.193Z,0.00
2019-04-14T00:35:43.320Z,0.00
2019-04-14T00:36:43.800Z,0.00
2019-04-14T00:37:44.403Z,0.00
2019-04-14T00:38:43.448Z,0.00
2019-04-14T00:39:44.316Z,0.00
2019-04-14T00:40:43.449Z,0.00
2019-04-14T00:41:48.835Z,0.00
2019-04-14T00:42:43.469Z,0.00
2019-04-14T00:43:43.893Z,0.00
2019-04-14T00:44:43.520Z,0.00
2019-04-14T00:45:48.877Z,0.00
2019-04-14T00:46:43.515Z,0.00
2019-04-14T00:47:56.744Z,0.00
2019-04-14T00:48:43.505Z,0.00
2019-04-14T00:49:44.067Z,0.00
2019-04-14T00:50:43.527Z,0.00
2019-04-14T00:51:44.055Z,0.00
2019-04-14T00:52:43.701Z,0.00
2019-04-14T00:53:44.562Z,0.00
2019-04-14T00:54:43.581Z,0.00
2019-04-14T00:55:44.341Z,0.00
2019-04-14T00:56:43.607Z,0.00
2019-04-14T00:57:44.154Z,0.00
2019-04-14T00:58:43.636Z,0.00
2019-04-14T00:59:44.050Z,0.00
2019-04-14T01:00:43.668Z,0.00
2019-04-14T01:01:43.775Z,0.00
2019-04-14T01:02:43.693Z,0.00
2019-04-14T01:03:43.755Z,0.00
2019-04-14T01:04:44.696Z,0.00
2019-04-14T01:05:43.757Z,0.00
2019-04-14T01:06:44.726Z,0.00
2019-04-14T01:07:43.758Z,0.00
2019-04-14T01:08:44.546Z,0.00
2019-04-14T01:09:44.215Z,0.00
2019-04-14T01:10:43.797Z,0.00
2019-04-14T01:11:44.363Z,0.00
2019-04-14T01:12:43.826Z,0.00
2019-04-14T01:13:44.037Z,0.00
2019-04-14T01:14:43.851Z,0.00
2019-04-14T01:15:53.714Z,0.00
2019-04-14T01:16:45.099Z,0.00
2019-04-14T01:17:43.949Z,0.00
2019-04-14T01:18:45.020Z,0.00
2019-04-14T01:19:43.940Z,0.00
2019-04-14T01:20:44.885Z,0.00
2019-04-14T01:21:43.947Z,0.00
2019-04-14T01:22:44.573Z,0.00
2019-04-14T01:23:43.975Z,0.00
2019-04-14T01:24:44.702Z,0.00
2019-04-14T01:25:45.233Z,0.00
2019-04-14T01:26:44.245Z,0.00
2019-04-14T01:27:44.939Z,0.00
2019-04-14T01:28:44.085Z,0.00
2019-04-14T01:29:44.829Z,0.00
2019-04-14T01:30:44.066Z,0.00
2019-04-14T01:31:44.640Z,0.00
2019-04-14T01:32:44.095Z,0.00
2019-04-14T01:33:44.449Z,0.00
2019-04-14T01:34:44.118Z,0.00
2019-04-14T01:35:44.391Z,0.00
2019-04-14T01:36:45.240Z,0.00
2019-04-14T01:37:44.196Z,0.00
2019-04-14T01:38:45.005Z,0.00
2019-04-14T01:39:44.186Z,0.00
2019-04-14T01:40:44.559Z,0.00
2019-04-14T01:41:44.213Z,0.00
2019-04-14T01:42:44.273Z,0.00
2019-04-14T01:43:45.168Z,0.00
2019-04-14T01:44:44.254Z,0.00
2019-04-14T01:45:46.089Z,0.00
2019-04-14T01:46:45.514Z,0.00
2019-04-14T01:47:44.522Z,0.00
2019-04-14T01:48:45.384Z,0.00
2019-04-14T01:49:44.373Z,0.00
2019-04-14T01:50:45.174Z,0.00
2019-04-14T01:51:44.348Z,0.00
2019-04-14T01:52:44.357Z,0.00
2019-04-14T01:53:44.615Z,0.00
2019-04-14T01:54:45.281Z,0.00
2019-04-14T01:55:44.402Z,0.00
2019-04-14T01:56:44.987Z,0.00
2019-04-14T01:57:44.429Z,0.00
2019-04-14T01:58:44.713Z,0.00
2019-04-14T01:59:44.455Z,0.00
2019-04-14T02:00:44.549Z,0.00
2019-04-14T02:01:45.477Z,0.00
2019-04-14T02:02:44.494Z,0.00
2019-04-14T02:03:45.480Z,0.00
2019-04-14T02:04:44.522Z,0.00
2019-04-14T02:05:45.316Z,0.00
2019-04-14T02:06:44.546Z,0.00
2019-04-14T02:07:45.172Z,0.00
2019-04-14T02:08:45.728Z,0.00
2019-04-14T02:09:44.711Z,0.00
2019-04-14T02:10:45.519Z,0.00
2019-04-14T02:11:44.614Z,0.00
2019-04-14T02:12:45.232Z,0.00
2019-04-14T02:13:44.640Z,0.00
2019-04-14T02:14:45.183Z,0.00
2019-04-14T02:15:44.668Z,0.00
2019-04-14T02:16:50.415Z,0.00
2019-04-14T02:17:45.908Z,0.00
2019-04-14T02:18:44.897Z,0.00
2019-04-14T02:19:45.877Z,0.00
2019-04-14T02:20:44.812Z,0.00
2019-04-14T02:21:45.634Z,0.00
2019-04-14T02:22:44.761Z,0.00
2019-04-14T02:23:45.353Z,0.00
2019-04-14T02:24:45.907Z,0.00
2019-04-14T02:25:45.055Z,0.00
2019-04-14T02:26:45.820Z,0.00
2019-04-14T02:27:45.067Z,0.00
2019-04-14T02:28:46.060Z,0.00
2019-04-14T02:29:45.089Z,0.00
2019-04-14T02:30:55.652Z,0.00
2019-04-14T02:32:09.857Z,0.00
2019-04-14T02:33:17.226Z,0.00
2019-04-14T02:34:07.962Z,0.00
2019-04-14T02:35:16.731Z,0.00
2019-04-14T02:36:21.682Z,0.00
2019-04-14T02:37:10.808Z,0.00
2019-04-14T02:38:34.228Z,0.00
2019-04-14T02:39:13.860Z,0.00
2019-04-14T02:40:18.144Z,0.00
2019-04-14T02:42:17.580Z,0.00
2019-04-14T02:43:19.732Z,0.00
2019-04-14T02:44:20.813Z,0.00
2019-04-14T02:45:19.125Z,0.00
2019-04-14T02:46:12.189Z,0.00
2019-04-14T02:47:38.874Z,0.00
2019-04-14T02:48:35.392Z,0.00
2019-04-14T02:49:29.460Z,0.00
2019-04-14T02:51:15.331Z,0.00
2019-04-14T02:52:11.952Z,0.00
2019-04-14T02:53:18.148Z,0.00
2019-04-14T02:54:13.637Z,0.00
2019-04-14T02:55:23.615Z,0.00
2019-04-14T02:56:15.816Z,0.00
2019-04-14T02:58:16.101Z,0.00
2019-04-14T03:00:19.189Z,0.00
2019-04-14T03:01:17.206Z,0.00
2019-04-14T03:03:15.942Z,0.00
2019-04-14T03:04:13.015Z,0.00
2019-04-14T03:05:11.205Z,0.00
2019-04-14T03:07:16.600Z,0.00
2019-04-14T03:08:08.312Z,0.00
2019-04-14T03:10:16.335Z,0.00
2019-04-14T03:11:09.749Z,0.00
2019-04-14T03:12:11.309Z,0.00
2019-04-14T03:13:15.753Z,0.00
2019-04-14T03:14:30.819Z,0.00
2019-04-14T03:15:13.066Z,0.00
2019-04-14T03:16:17.859Z,0.00
2019-04-14T03:18:26.285Z,0.00
2019-04-14T03:19:06.618Z,0.00
2019-04-14T03:21:14.012Z,0.00
2019-04-14T03:22:26.805Z,0.00
2019-04-14T03:23:21.238Z,0.00
2019-04-14T03:25:03.013Z,0.00
2019-04-14T03:26:08.328Z,0.00
2019-04-14T03:27:18.529Z,0.00
2019-04-14T03:28:11.735Z,0.00
2019-04-14T03:29:06.785Z,0.00
2019-04-14T03:30:33.403Z,0.00
2019-04-14T03:32:32.291Z,0.00
2019-04-14T03:33:49.008Z,0.00
2019-04-14T03:35:47.703Z,0.00
2019-04-14T03:36:43.935Z,0.00
2019-04-14T03:38:13.200Z,0.00
2019-04-14T03:39:17.399Z,0.00
2019-04-14T03:40:09.980Z,0.00
2019-04-14T03:41:16.691Z,0.00
2019-04-14T03:42:21.378Z,0.00
2019-04-14T03:43:25.527Z,0.00
2019-04-14T03:44:10.008Z,0.00
2019-04-14T03:45:22.230Z,0.00
2019-04-14T03:46:17.148Z,4.00
2019-04-14T03:47:13.504Z,4.00
2019-04-14T03:50:17.246Z,4.00
2019-04-14T03:52:19.458Z,4.00
2019-04-14T03:53:18.796Z,8.00
2019-04-14T03:54:03.265Z,4.00
2019-04-14T03:55:01.226Z,8.00
2019-04-14T03:55:52.161Z,8.00
2019-04-14T03:56:46.702Z,12.00
2019-04-14T03:57:46.000Z,12.00
2019-04-14T03:58:46.555Z,12.00
2019-04-14T03:59:46.029Z,16.00
2019-04-14T04:00:46.532Z,20.00
2019-04-14T04:01:46.056Z,20.00
2019-04-14T04:02:46.690Z,28.00
2019-04-14T04:03:46.081Z,24.00
2019-04-14T04:04:46.696Z,28.00
2019-04-14T04:05:46.111Z,36.00
2019-04-14T04:06:46.387Z,40.00
2019-04-14T04:07:47.419Z,48.00
2019-04-14T04:08:46.463Z,56.00
2019-04-14T04:09:46.468Z,52.00
2019-04-14T04:10:46.476Z,52.00
2019-04-14T04:11:46.185Z,68.00
2019-04-14T04:12:46.518Z,76.00
2019-04-14T04:13:46.211Z,88.00
2019-04-14T04:14:46.415Z,84.00
2019-04-14T04:15:46.238Z,80.00
2019-04-14T04:16:46.263Z,88.00
2019-04-14T04:17:47.203Z,96.00
2019-04-14T04:18:56.228Z,108.00
2019-04-14T04:19:47.021Z,112.00
2019-04-14T04:20:46.304Z,132.00
2019-04-14T04:21:46.621Z,132.00
2019-04-14T04:22:47.557Z,128.00
2019-04-14T04:23:46.813Z,124.00
2019-04-14T04:24:47.489Z,148.00
2019-04-14T04:25:46.574Z,184.00
2019-04-14T04:26:47.237Z,184.00
2019-04-14T04:27:46.392Z,204.00
2019-04-14T04:28:47.169Z,240.00
2019-04-14T04:29:46.416Z,268.00
2019-04-14T04:30:46.996Z,264.00
2019-04-14T04:31:46.443Z,292.00
2019-04-14T04:32:46.914Z,308.00
2019-04-14T04:33:46.471Z,300.00
2019-04-14T04:34:46.649Z,364.00
2019-04-14T04:35:46.494Z,468.00
2019-04-14T04:36:46.508Z,444.00
2019-04-14T04:37:47.577Z,368.00
2019-04-14T04:38:46.532Z,440.00
2019-04-14T04:39:47.488Z,560.00
2019-04-14T04:40:46.560Z,540.00
2019-04-14T04:41:47.237Z,568.00
2019-04-14T04:42:46.590Z,564.00
2019-04-14T04:43:47.340Z,484.00
2019-04-14T04:44:46.614Z,604.00
2019-04-14T04:45:47.369Z,564.00
2019-04-14T04:46:46.637Z,512.00
2019-04-14T04:47:46.992Z,460.00
2019-04-14T04:48:58.297Z,548.00
2019-04-14T04:49:46.865Z,584.00
2019-04-14T04:50:47.636Z,700.00
2019-04-14T04:51:46.706Z,632.00
2019-04-14T04:52:47.530Z,556.00
2019-04-14T04:53:46.731Z,584.00
2019-04-14T04:54:47.414Z,592.00
2019-04-14T04:55:46.756Z,636.00
2019-04-14T04:56:47.261Z,664.00
2019-04-14T04:57:48.029Z,716.00
2019-04-14T04:58:47.980Z,716.00
2019-04-14T04:59:47.426Z,792.00
2019-04-14T05:00:48.548Z,760.00
2019-04-14T05:01:47.353Z,732.00
2019-04-14T05:02:46.846Z,720.00
2019-04-14T05:03:47.105Z,668.00
2019-04-14T05:04:46.871Z,664.00
2019-04-14T05:05:47.064Z,696.00
2019-04-14T05:06:46.901Z,628.00
2019-04-14T05:07:46.942Z,596.00
2019-04-14T05:08:47.951Z,636.00
2019-04-14T05:09:46.965Z,596.00
2019-04-14T05:10:48.095Z,680.00
2019-04-14T05:11:47.020Z,656.00
2019-04-14T05:12:47.857Z,700.00
2019-04-14T05:13:46.991Z,652.00
2019-04-14T05:14:47.949Z,688.00
2019-04-14T05:15:47.012Z,716.00
2019-04-14T05:16:47.056Z,780.00
2019-04-14T05:17:47.403Z,768.00
2019-04-14T05:18:47.109Z,832.00
2019-04-14T05:19:47.569Z,868.00
2019-04-14T05:20:47.115Z,764.00
2019-04-14T05:21:47.412Z,888.00
2019-04-14T05:22:47.179Z,960.00
2019-04-14T05:23:47.397Z,960.00
2019-04-14T05:24:47.185Z,1024.00
2019-04-14T05:25:47.372Z,884.00
2019-04-14T05:26:48.376Z,948.00
2019-04-14T05:27:47.374Z,984.00
2019-04-14T05:28:48.361Z,964.00
2019-04-14T05:29:47.272Z,1048.00
2019-04-14T05:30:48.153Z,1236.00
2019-04-14T05:31:47.220Z,1288.00
2019-04-14T05:32:47.950Z,1360.00
2019-04-14T05:33:47.244Z,1276.00
2019-04-14T05:34:47.898Z,1296.00
2019-04-14T05:35:47.270Z,1364.00
2019-04-14T05:36:47.875Z,1492.00
2019-04-14T05:37:48.555Z,1256.00
2019-04-14T05:38:47.446Z,1324.00
2019-04-14T05:39:48.298Z,1324.00
2019-04-14T05:40:47.501Z,1200.00
2019-04-14T05:41:56.845Z,1188.00
2019-04-14T05:42:47.406Z,1364.00
2019-04-14T05:43:52.040Z,1356.00
2019-04-14T05:44:47.383Z,1252.00
2019-04-14T05:45:48.019Z,1176.00
2019-04-14T05:46:47.409Z,1300.00
2019-04-14T05:47:47.896Z,1596.00
2019-04-14T05:48:47.435Z,2084.00
2019-04-14T05:49:51.295Z,1972.00
2019-04-14T05:50:47.463Z,2060.00
2019-04-14T05:51:48.137Z,2104.00
2019-04-14T05:52:47.484Z,2516.00
2019-04-14T05:53:48.074Z,2416.00
2019-04-14T05:54:47.511Z,2812.00
2019-04-14T05:55:48.203Z,2876.00
2019-04-14T05:56:47.535Z,3292.00
2019-04-14T05:57:48.127Z,4144.00
2019-04-14T05:58:47.561Z,3496.00
2019-04-14T05:59:48.355Z,3072.00
2019-04-14T06:00:47.590Z,2976.00
2019-04-14T06:01:48.765Z,3624.00
2019-04-14T06:02:48.402Z,3564.00
2019-04-14T06:03:47.622Z,3312.00
2019-04-14T06:04:48.249Z,3588.00
2019-04-14T06:05:47.662Z,3892.00
2019-04-14T06:06:47.662Z,3952.00
2019-04-14T06:07:47.676Z,3612.00
2019-04-14T06:08:47.685Z,3656.00
2019-04-14T06:09:47.699Z,4440.00
2019-04-14T06:10:47.710Z,3956.00
2019-04-14T06:11:47.725Z,4412.00
2019-04-14T06:12:47.738Z,4344.00
2019-04-14T06:13:47.761Z,4176.00
2019-04-14T06:14:47.790Z,4868.00
2019-04-14T06:15:47.784Z,5016.00
2019-04-14T06:16:47.789Z,5016.00
2019-04-14T06:17:47.803Z,5524.00
2019-04-14T06:18:47.819Z,5972.00
2019-04-14T06:19:47.827Z,6192.00
2019-04-14T06:20:47.839Z,6660.00
2019-04-14T06:21:47.853Z,5860.00
2019-04-14T06:22:47.864Z,6084.00
2019-04-14T06:23:47.881Z,7136.00
2019-04-14T06:24:47.891Z,6204.00
2019-04-14T06:25:47.904Z,5732.00
2019-04-14T06:26:47.917Z,5880.00
2019-04-14T06:27:47.932Z,6028.00
2019-04-14T06:28:47.944Z,6464.00
2019-04-14T06:29:47.958Z,6748.00
2019-04-14T06:30:47.970Z,6448.00
2019-04-14T06:31:47.986Z,6584.00
2019-04-14T06:32:47.994Z,5972.00
2019-04-14T06:33:48.005Z,6972.00
2019-04-14T06:34:48.022Z,6468.00
2019-04-14T06:35:48.033Z,5740.00
2019-04-14T06:36:48.044Z,5748.00
2019-04-14T06:37:48.058Z,5664.00
2019-04-14T06:38:48.071Z,5716.00
2019-04-14T06:39:48.087Z,4840.00
2019-04-14T06:40:48.098Z,5100.00
2019-04-14T06:41:48.111Z,4364.00
2019-04-14T06:42:48.125Z,3924.00
2019-04-14T06:43:49.075Z,4112.00
2019-04-14T06:44:48.151Z,4460.00
2019-04-14T06:45:48.164Z,4044.00
2019-04-14T06:46:48.177Z,4440.00
2019-04-14T06:47:48.188Z,3812.00
2019-04-14T06:48:48.204Z,3444.00
2019-04-14T06:49:49.202Z,3984.00
2019-04-14T06:50:48.228Z,4716.00
2019-04-14T06:51:48.240Z,5964.00
2019-04-14T06:52:48.259Z,5276.00
2019-04-14T06:53:48.271Z,4820.00
2019-04-14T06:54:48.281Z,5136.00
2019-04-14T06:55:48.293Z,5072.00
2019-04-14T06:56:48.306Z,5364.00
2019-04-14T06:57:48.320Z,4552.00
2019-04-14T06:58:48.333Z,4212.00
2019-04-14T06:59:48.347Z,5140.00
2019-04-14T07:00:48.359Z,4852.00
2019-04-14T07:01:48.373Z,5492.00
2019-04-14T07:02:48.387Z,6140.00
2019-04-14T07:03:48.401Z,6604.00
2019-04-14T07:04:48.412Z,5536.00
2019-04-14T07:05:48.424Z,5708.00
2019-04-14T07:06:51.220Z,5388.00
2019-04-14T07:07:56.928Z,5420.00
2019-04-14T07:08:48.464Z,5076.00
2019-04-14T07:09:48.482Z,4968.00
2019-04-14T07:10:48.490Z,5152.00
2019-04-14T07:11:48.503Z,5044.00
2019-04-14T07:12:48.516Z,6064.00
2019-04-14T07:13:48.534Z,6716.00
2019-04-14T07:14:48.540Z,7740.00
2019-04-14T07:15:48.556Z,6800.00
2019-04-14T07:16:51.227Z,7152.00
2019-04-14T07:17:48.581Z,7988.00
2019-04-14T07:18:48.601Z,7100.00
2019-04-14T07:20:01.047Z,6252.00
2019-04-14T07:20:48.620Z,6536.00
2019-04-14T07:21:48.637Z,7352.00
2019-04-14T07:22:48.645Z,6572.00
2019-04-14T07:23:48.663Z,7068.00
2019-04-14T07:24:48.672Z,6704.00
2019-04-14T07:25:48.686Z,6868.00
2019-04-14T07:26:48.699Z,7780.00
2019-04-14T07:27:48.711Z,6808.00
2019-04-14T07:28:56.697Z,7416.00
2019-04-14T07:29:48.739Z,6764.00
2019-04-14T07:30:48.751Z,7176.00
2019-04-14T07:31:48.765Z,6220.00
2019-04-14T07:32:48.777Z,6276.00
2019-04-14T07:33:48.795Z,7004.00
2019-04-14T07:34:48.806Z,7972.00
2019-04-14T07:35:48.818Z,7400.00
2019-04-14T07:36:48.832Z,6168.00
2019-04-14T07:37:48.861Z,5204.00
2019-04-14T07:38:48.930Z,5308.00
2019-04-14T07:39:48.948Z,4968.00
2019-04-14T07:40:48.944Z,5876.00
2019-04-14T07:41:48.936Z,5492.00
2019-04-14T07:42:48.932Z,4996.00
2019-04-14T07:43:48.986Z,5192.00
2019-04-14T07:44:48.996Z,5284.00
2019-04-14T07:45:49.005Z,5060.00
2019-04-14T07:46:49.000Z,5920.00
2019-04-14T07:47:48.998Z,5992.00
2019-04-14T07:48:48.992Z,5260.00
2019-04-14T07:49:49.003Z,4876.00
2019-04-14T07:50:49.018Z,4756.00
2019-04-14T07:51:49.030Z,4880.00
2019-04-14T07:52:49.044Z,4888.00
2019-04-14T07:53:49.057Z,5360.00
2019-04-14T07:54:49.069Z,5636.00
2019-04-14T07:55:49.083Z,6044.00
2019-04-14T07:56:49.101Z,6184.00
2019-04-14T07:57:49.115Z,6912.00
2019-04-14T07:58:49.125Z,7076.00
2019-04-14T07:59:49.136Z,7208.00
2019-04-14T08:00:49.167Z,7188.00
2019-04-14T08:01:49.162Z,6948.00
2019-04-14T08:02:49.178Z,6320.00
2019-04-14T08:03:49.187Z,5612.00
2019-04-14T08:04:49.202Z,5976.00
2019-04-14T08:05:49.215Z,5456.00
2019-04-14T08:06:49.228Z,4896.00
2019-04-14T08:07:49.241Z,6104.00
2019-04-14T08:08:49.255Z,5628.00
2019-04-14T08:09:49.269Z,4964.00
2019-04-14T08:10:49.281Z,4576.00
2019-04-14T08:11:49.295Z,5184.00
2019-04-14T08:12:49.309Z,6032.00
2019-04-14T08:13:49.322Z,6160.00
2019-04-14T08:14:49.335Z,6408.00
2019-04-14T08:15:49.368Z,6364.00
2019-04-14T08:16:49.362Z,5480.00
2019-04-14T08:17:49.376Z,4644.00
2019-04-14T08:18:49.388Z,5916.00
2019-04-14T08:19:49.401Z,6920.00
2019-04-14T08:20:49.416Z,5812.00
2019-04-14T08:21:49.428Z,6468.00
2019-04-14T08:22:49.445Z,7860.00
2019-04-14T08:23:49.454Z,7728.00
2019-04-14T08:24:49.467Z,7240.00
2019-04-14T08:25:49.481Z,7732.00
2019-04-14T08:26:49.509Z,8316.00
2019-04-14T08:27:49.510Z,8720.00
2019-04-14T08:28:49.522Z,8240.00
2019-04-14T08:29:49.536Z,7788.00
2019-04-14T08:30:49.548Z,8760.00
2019-04-14T08:31:49.564Z,9368.00
2019-04-14T08:32:49.577Z,10248.00
2019-04-14T08:33:49.592Z,9760.00
2019-04-14T08:34:49.602Z,8880.00
2019-04-14T08:35:49.617Z,7504.00
2019-04-14T08:36:49.630Z,7912.00
2019-04-14T08:37:49.645Z,7380.00
2019-04-14T08:38:49.657Z,9336.00
2019-04-14T08:39:49.673Z,9384.00
2019-04-14T08:40:49.686Z,7440.00
2019-04-14T08:41:49.701Z,6380.00
2019-04-14T08:42:49.785Z,6716.00
2019-04-14T08:43:49.726Z,8248.00
2019-04-14T08:44:49.741Z,8876.00
2019-04-14T08:45:49.755Z,8496.00
2019-04-14T08:46:49.767Z,8968.00
2019-04-14T08:47:49.781Z,11680.00
2019-04-14T08:48:49.808Z,12092.00
2019-04-14T08:49:49.811Z,13256.00
2019-04-14T08:50:49.821Z,12840.00
2019-04-14T08:51:49.840Z,11436.00
2019-04-14T08:52:49.849Z,11940.00
2019-04-14T08:53:49.866Z,11564.00
2019-04-14T08:54:49.883Z,11200.00
2019-04-14T08:55:49.892Z,10136.00
2019-04-14T08:56:49.906Z,9980.00
2019-04-14T08:57:49.921Z,11476.00
2019-04-14T08:58:49.936Z,11564.00
2019-04-14T08:59:49.948Z,12088.00
2019-04-14T09:00:49.964Z,12848.00
2019-04-14T09:01:49.978Z,12948.00
2019-04-14T09:02:49.992Z,11816.00
2019-04-14T09:03:50.006Z,13376.00
2019-04-14T09:04:50.022Z,13404.00
2019-04-14T09:05:50.036Z,12860.00
2019-04-14T09:06:50.050Z,11204.00
2019-04-14T09:07:50.064Z,10396.00
2019-04-14T09:08:50.079Z,9832.00
2019-04-14T09:09:50.094Z,10416.00
2019-04-14T09:10:50.112Z,9740.00
2019-04-14T09:11:50.121Z,10252.00
2019-04-14T09:12:50.136Z,9220.00
2019-04-14T09:13:50.151Z,10048.00
2019-04-14T09:14:56.947Z,9664.00
2019-04-14T09:15:50.183Z,9060.00
2019-04-14T09:16:50.197Z,9280.00
2019-04-14T09:17:50.209Z,9316.00
2019-04-14T09:18:50.223Z,9604.00
2019-04-14T09:19:50.239Z,8564.00
2019-04-14T09:20:52.542Z,8084.00
2019-04-14T09:21:50.267Z,8296.00
2019-04-14T09:22:50.286Z,8916.00
2019-04-14T09:23:50.296Z,7768.00
2019-04-14T09:24:50.314Z,8096.00
2019-04-14T09:25:50.325Z,8880.00
2019-04-14T09:26:50.338Z,9804.00
2019-04-14T09:27:50.352Z,9228.00
2019-04-14T09:28:50.367Z,8600.00
2019-04-14T09:29:52.290Z,8384.00
2019-04-14T09:30:50.397Z,7852.00
2019-04-14T09:31:50.424Z,7900.00
2019-04-14T09:32:50.426Z,8236.00
2019-04-14T09:33:50.439Z,8904.00
2019-04-14T09:34:50.459Z,9012.00
2019-04-14T09:35:50.468Z,9708.00
2019-04-14T09:36:50.483Z,9232.00
2019-04-14T09:37:50.497Z,8464.00
2019-04-14T09:38:50.511Z,9696.00
2019-04-14T09:39:50.527Z,10004.00
2019-04-14T09:40:50.546Z,8736.00
2019-04-14T09:41:50.556Z,8128.00
2019-04-14T09:42:50.571Z,8472.00
2019-04-14T09:43:50.587Z,8940.00
2019-04-14T09:44:50.603Z,9628.00
2019-04-14T09:45:50.615Z,9820.00
2019-04-14T09:46:50.631Z,9516.00
2019-04-14T09:47:50.644Z,9948.00
2019-04-14T09:48:50.658Z,10512.00
2019-04-14T09:49:50.675Z,10204.00
2019-04-14T09:50:50.712Z,8888.00
2019-04-14T09:51:50.768Z,10556.00
2019-04-14T09:52:50.775Z,10656.00
2019-04-14T09:53:50.768Z,9024.00
2019-04-14T09:54:50.833Z,9208.00
2019-04-14T09:55:50.840Z,10428.00
2019-04-14T09:56:50.834Z,10884.00
2019-04-14T09:57:50.837Z,12324.00
2019-04-14T09:58:50.830Z,9980.00
2019-04-14T09:59:50.825Z,9888.00
2019-04-14T10:00:50.834Z,10700.00
2019-04-14T10:01:50.862Z,10268.00
2019-04-14T10:02:50.865Z,8224.00
2019-04-14T10:03:50.882Z,7980.00
2019-04-14T10:04:50.896Z,8740.00
2019-04-14T10:05:50.911Z,8584.00
2019-04-14T10:06:51.125Z,9208.00
2019-04-14T10:07:50.945Z,9124.00
2019-04-14T10:08:50.956Z,8552.00
2019-04-14T10:09:50.974Z,7576.00
2019-04-14T10:10:50.985Z,7940.00
2019-04-14T10:11:54.682Z,8356.00
2019-04-14T10:12:51.013Z,8092.00
2019-04-14T10:13:51.031Z,8604.00
2019-04-14T10:14:51.047Z,8284.00
2019-04-14T10:15:51.060Z,7264.00
2019-04-14T10:16:51.074Z,8324.00
2019-04-14T10:17:51.090Z,9004.00
2019-04-14T10:18:51.103Z,8960.00
2019-04-14T10:19:51.122Z,8360.00
2019-04-14T10:20:51.135Z,7944.00
2019-04-14T10:21:51.150Z,8212.00
2019-04-14T10:22:51.163Z,7736.00
2019-04-14T10:23:51.176Z,7488.00
2019-04-14T10:24:51.193Z,7612.00
2019-04-14T10:25:51.205Z,7148.00
2019-04-14T10:26:51.230Z,6256.00
2019-04-14T10:27:51.237Z,6608.00
2019-04-14T10:28:51.254Z,7476.00
2019-04-14T10:29:51.268Z,7460.00
2019-04-14T10:30:51.280Z,6628.00
2019-04-14T10:31:51.342Z,6296.00
2019-04-14T10:32:51.311Z,6304.00
2019-04-14T10:33:51.328Z,5980.00
2019-04-14T10:34:51.342Z,5444.00
2019-04-14T10:35:51.356Z,6676.00
2019-04-14T10:36:51.372Z,7668.00
2019-04-14T10:37:51.385Z,7332.00
2019-04-14T10:38:51.404Z,6980.00
2019-04-14T10:39:51.417Z,7296.00
2019-04-14T10:40:51.433Z,6660.00
2019-04-14T10:41:51.445Z,5176.00
2019-04-14T10:42:51.457Z,6768.00
2019-04-14T10:43:51.475Z,8220.00
2019-04-14T10:44:51.488Z,8324.00
2019-04-14T10:45:51.501Z,7968.00
2019-04-14T10:46:51.518Z,7388.00
2019-04-14T10:47:51.533Z,7988.00
2019-04-14T10:48:51.552Z,7928.00
2019-04-14T10:49:51.562Z,7720.00
2019-04-14T10:50:51.575Z,7332.00
2019-04-14T10:51:51.591Z,6152.00
2019-04-14T10:52:51.605Z,5204.00
2019-04-14T10:53:51.621Z,5760.00
2019-04-14T10:54:51.634Z,7180.00
2019-04-14T10:55:51.654Z,7228.00
2019-04-14T10:56:51.665Z,6596.00
2019-04-14T10:57:51.681Z,6428.00
2019-04-14T10:58:51.693Z,7208.00
2019-04-14T10:59:51.710Z,6904.00
2019-04-14T11:00:51.724Z,6924.00
2019-04-14T11:01:51.738Z,7108.00
2019-04-14T11:02:51.752Z,6336.00
2019-04-14T11:03:51.768Z,6296.00
2019-04-14T11:04:51.782Z,6904.00
2019-04-14T11:05:51.799Z,6484.00
2019-04-14T11:06:51.811Z,6372.00
2019-04-14T11:07:51.826Z,6604.00
2019-04-14T11:08:51.841Z,6476.00
2019-04-14T11:09:53.848Z,6804.00
2019-04-14T11:10:51.871Z,6524.00
2019-04-14T11:11:51.886Z,6936.00
2019-04-14T11:12:51.901Z,6616.00
2019-04-14T11:13:51.915Z,6772.00
2019-04-14T11:14:51.930Z,6264.00
2019-04-14T11:15:51.944Z,7096.00
2019-04-14T11:16:51.959Z,6244.00
2019-04-14T11:17:51.976Z,7044.00
2019-04-14T11:18:51.987Z,6872.00
2019-04-14T11:19:52.004Z,7340.00
2019-04-14T11:20:52.021Z,7556.00
2019-04-14T11:21:52.032Z,7692.00
2019-04-14T11:23:02.721Z,7580.00
2019-04-14T11:23:52.063Z,7792.00
2019-04-14T11:24:52.128Z,8000.00
2019-04-14T11:25:52.095Z,7932.00
2019-04-14T11:26:52.109Z,8384.00
2019-04-14T11:27:52.122Z,8500.00
2019-04-14T11:28:52.140Z,9204.00
2019-04-14T11:29:54.049Z,9360.00
2019-04-14T11:30:52.166Z,9184.00
2019-04-14T11:31:52.182Z,9436.00
2019-04-14T11:32:52.195Z,9468.00
2019-04-14T11:33:52.213Z,9208.00
2019-04-14T11:34:52.228Z,9140.00
2019-04-14T11:35:52.242Z,9240.00
2019-04-14T11:36:52.256Z,9528.00
2019-04-14T11:37:52.275Z,9448.00
2019-04-14T11:38:52.287Z,9052.00
2019-04-14T11:39:52.307Z,8844.00
2019-04-14T11:40:52.321Z,8752.00
2019-04-14T11:41:52.335Z,8616.00
2019-04-14T11:42:52.797Z,8732.00
2019-04-14T11:43:52.372Z,8976.00
2019-04-14T11:44:52.394Z,9196.00
2019-04-14T11:45:52.393Z,9520.00
2019-04-14T11:46:52.421Z,10180.00
2019-04-14T11:47:52.426Z,11088.00
2019-04-14T11:48:52.440Z,11608.00
2019-04-14T11:49:52.456Z,11924.00
2019-04-14T11:50:52.472Z,12436.00
2019-04-14T11:51:55.593Z,12936.00
2019-04-14T11:52:52.504Z,14196.00
2019-04-14T11:53:52.519Z,15500.00
2019-04-14T11:54:52.562Z,16132.00
2019-04-14T11:55:52.619Z,16852.00
2019-04-14T11:56:52.618Z,17324.00
2019-04-14T11:57:52.645Z,16448.00
2019-04-14T11:58:52.657Z,15356.00
2019-04-14T11:59:52.674Z,14988.00
2019-04-14T12:00:52.689Z,15456.00
2019-04-14T12:01:52.671Z,15808.00
2019-04-14T12:02:52.682Z,16276.00
2019-04-14T12:03:52.677Z,16788.00
2019-04-14T12:04:52.693Z,16976.00
2019-04-14T12:05:52.710Z,16316.00
2019-04-14T12:06:52.726Z,16224.00
2019-04-14T12:07:52.741Z,18432.00
2019-04-14T12:08:52.760Z,19616.00
2019-04-14T12:09:52.774Z,19584.00
2019-04-14T12:10:52.790Z,19936.00
2019-04-14T12:11:52.807Z,21376.00
2019-04-14T12:12:52.825Z,22112.00
2019-04-14T12:13:52.841Z,21216.00
2019-04-14T12:14:52.856Z,19040.00
2019-04-14T12:15:52.875Z,18016.00
2019-04-14T12:16:52.892Z,19392.00
2019-04-14T12:17:52.910Z,20864.00
2019-04-14T12:18:52.923Z,22176.00
2019-04-14T12:19:52.941Z,23328.00
2019-04-14T12:20:52.959Z,23552.00
2019-04-14T12:21:52.978Z,23424.00
2019-04-14T12:22:52.990Z,23840.00
2019-04-14T12:23:53.010Z,22848.00
2019-04-14T12:24:53.031Z,21184.00
2019-04-14T12:26:04.688Z,19424.00
2019-04-14T12:26:53.062Z,18848.00
2019-04-14T12:27:53.549Z,19104.00
2019-04-14T12:28:53.702Z,19872.00
2019-04-14T12:29:54.380Z,20960.00
2019-04-14T12:30:53.254Z,22016.00
2019-04-14T12:31:53.156Z,21600.00
2019-04-14T12:32:53.164Z,19936.00
2019-04-14T12:33:53.182Z,18656.00
2019-04-14T12:34:53.200Z,18400.00
2019-04-14T12:35:53.217Z,19648.00
2019-04-14T12:36:53.237Z,20672.00
2019-04-14T12:37:53.253Z,20864.00
2019-04-14T12:38:53.270Z,21728.00
2019-04-14T12:39:53.286Z,22752.00
2019-04-14T12:40:55.933Z,23872.00
2019-04-14T12:41:53.328Z,24896.00
2019-04-14T12:42:53.341Z,27104.00